createdAt,value
2018-06-05T00:01:09.475Z,6.50
2018-06-05T00:06:12.619Z,5.92
2018-06-05T00:11:16.883Z,6.55
2018-06-05T00:16:19.953Z,6.05
2018-06-05T00:21:23.106Z,6.12
2018-06-05T00:26:26.200Z,6.30
2018-06-05T00:31:29.252Z,6.55
2018-06-05T00:36:32.365Z,6.60
2018-06-05T00:41:35.424Z,7.03
2018-06-05T00:46:38.453Z,7.30
2018-06-05T00:51:47.100Z,7.70
2018-06-05T00:56:50.169Z,7.50
2018-06-05T01:01:54.213Z,7.97
2018-06-05T01:06:57.405Z,7.85
2018-06-05T01:12:00.557Z,7.78
2018-06-05T01:17:03.847Z,7.50
2018-06-05T01:22:06.967Z,8.15
2018-06-05T01:27:12.971Z,7.87
2018-06-05T01:32:16.024Z,7.62
2018-06-05T01:37:19.107Z,8.58
2018-06-05T01:42:22.206Z,8.80
2018-06-05T01:47:25.263Z,9.60
2018-06-05T01:52:28.343Z,8.55
2018-06-05T01:57:31.721Z,9.25
2018-06-05T02:02:34.809Z,10.20
2018-06-05T02:07:37.873Z,9.48
2018-06-05T02:12:40.949Z,9.25
2018-06-05T02:17:44.040Z,9.55
2018-06-05T02:22:47.132Z,9.63
2018-06-05T02:27:50.228Z,9.23
2018-06-05T02:32:53.320Z,11.70
2018-06-05T02:37:56.683Z,12.25
2018-06-05T02:42:59.825Z,13.60
2018-06-05T02:48:02.952Z,13.15
2018-06-05T02:53:06.002Z,13.10
2018-06-05T02:58:09.125Z,13.75
2018-06-05T03:03:12.268Z,13.93
2018-06-05T03:08:15.443Z,14.95
2018-06-05T03:13:18.534Z,14.38
2018-06-05T03:18:21.647Z,16.30
2018-06-05T03:23:24.703Z,15.48
2018-06-05T03:28:28.443Z,14.95
2018-06-05T03:33:31.619Z,15.75
2018-06-05T03:38:35.561Z,14.05
2018-06-05T03:43:38.666Z,16.35
2018-06-05T03:48:41.736Z,17.12
2018-06-05T03:53:45.236Z,18.73
2018-06-05T03:58:48.264Z,14.70
2018-06-05T04:03:51.427Z,16.37
2018-06-05T04:08:54.694Z,17.02
2018-06-05T04:13:57.872Z,17.95
2018-06-05T04:19:00.953Z,16.82
2018-06-05T04:24:04.595Z,14.65
2018-06-05T04:29:07.716Z,17.95
2018-06-05T04:34:10.784Z,17.35
2018-06-05T04:39:13.916Z,18.17
2018-06-05T04:44:17.056Z,17.05
2018-06-05T04:49:20.374Z,16.02
2018-06-05T04:54:23.840Z,16.48
2018-06-05T04:59:26.890Z,17.20
2018-06-05T05:04:29.971Z,16.95
2018-06-05T05:09:33.626Z,13.68
2018-06-05T05:14:36.712Z,16.15
2018-06-05T05:19:39.782Z,14.75
2018-06-05T05:24:42.895Z,12.40
2018-06-05T05:29:45.949Z,14.10
2018-06-05T05:34:49.134Z,11.43
2018-06-05T05:39:52.209Z,13.75
2018-06-05T05:44:55.285Z,14.07
2018-06-05T05:49:58.392Z,11.88
2018-06-05T05:55:02.457Z,13.20
2018-06-05T06:00:06.603Z,10.78
2018-06-05T06:05:09.801Z,12.93
2018-06-05T06:10:13.519Z,13.03
2018-06-05T06:15:16.649Z,13.50
2018-06-05T06:20:19.671Z,14.37
2018-06-05T06:25:22.773Z,13.33
2018-06-05T06:30:25.936Z,14.55
2018-06-05T06:35:29.035Z,18.57
2018-06-05T06:40:32.175Z,18.42
2018-06-05T06:45:35.508Z,21.60
2018-06-05T06:50:38.636Z,20.52
2018-06-05T06:55:42.020Z,20.48
2018-06-05T07:00:46.220Z,19.10
2018-06-05T07:05:49.299Z,16.37
2018-06-05T07:10:52.368Z,12.58
2018-06-05T07:15:55.524Z,11.03
2018-06-05T07:20:58.649Z,10.13
2018-06-05T07:26:02.163Z,9.80
2018-06-05T07:31:05.524Z,10.23
2018-06-05T07:36:08.586Z,9.13
2018-06-05T07:41:11.723Z,9.05
2018-06-05T07:46:15.749Z,9.10
2018-06-05T07:51:18.792Z,8.10
2018-06-05T07:56:21.900Z,7.85
2018-06-05T08:01:26.305Z,8.35
2018-06-05T08:06:29.417Z,8.25
2018-06-05T08:11:32.546Z,7.95
2018-06-05T08:16:36.541Z,7.42
2018-06-05T08:21:39.665Z,7.70
2018-06-05T08:26:51.577Z,7.72
2018-06-05T08:31:54.840Z,7.80
2018-06-05T08:36:57.836Z,7.42
2018-06-05T08:42:00.863Z,7.83
2018-06-05T08:47:04.036Z,6.90
2018-06-05T08:52:07.954Z,7.55
2018-06-05T08:57:11.156Z,6.92
2018-06-05T09:02:14.480Z,6.95
2018-06-05T09:07:17.552Z,7.20
2018-06-05T09:12:21.146Z,7.17
2018-06-05T09:17:24.257Z,21.35
2018-06-05T09:22:27.374Z,25.88
2018-06-05T09:27:30.425Z,25.45
2018-06-05T09:32:33.488Z,25.70
2018-06-05T09:37:36.541Z,22.00
2018-06-05T09:42:39.624Z,21.95
2018-06-05T09:47:42.704Z,19.50
2018-06-05T09:52:45.733Z,21.02
2018-06-05T09:57:48.931Z,18.95
2018-06-05T10:02:51.977Z,18.70
2018-06-05T10:07:55.090Z,18.50
2018-06-05T10:12:58.413Z,17.92
2018-06-05T10:18:02.116Z,19.10
2018-06-05T10:23:05.356Z,18.77
2018-06-05T10:28:08.536Z,17.60
2018-06-05T10:33:11.643Z,17.37
2018-06-05T10:38:14.739Z,17.10
2018-06-05T10:43:17.833Z,20.43
2018-06-05T10:48:21.035Z,21.95
2018-06-05T10:53:24.256Z,21.17
2018-06-05T10:58:27.305Z,20.30
2018-06-05T11:03:30.394Z,19.20
2018-06-05T11:08:33.491Z,19.07
2018-06-05T11:13:36.600Z,19.52
2018-06-05T11:18:39.674Z,13.95
2018-06-05T11:23:42.841Z,16.00
2018-06-05T11:28:45.930Z,12.37
2018-06-05T11:33:49.044Z,18.35
2018-06-05T11:38:52.188Z,16.07
2018-06-05T11:43:55.272Z,18.52
2018-06-05T11:48:58.443Z,18.80
2018-06-05T11:54:01.568Z,20.15
2018-06-05T11:59:04.589Z,20.25
2018-06-05T12:04:07.973Z,20.12
2018-06-05T12:09:11.788Z,19.52
2018-06-05T12:14:14.908Z,18.87
2018-06-05T12:19:18.005Z,18.27
2018-06-05T12:24:21.145Z,16.67
2018-06-05T12:29:24.252Z,15.98
2018-06-05T12:34:27.300Z,18.40
2018-06-05T12:39:30.318Z,18.77
2018-06-05T12:44:33.338Z,16.87
2018-06-05T12:49:36.508Z,17.67
2018-06-05T12:54:39.575Z,21.27
2018-06-05T12:59:42.695Z,20.02
2018-06-05T13:04:45.770Z,20.55
2018-06-05T13:09:48.899Z,20.50
2018-06-05T13:14:51.995Z,19.07
2018-06-05T13:19:55.105Z,20.02
2018-06-05T13:24:58.121Z,19.45
2018-06-05T13:30:01.335Z,19.17
2018-06-05T13:35:05.401Z,18.92
2018-06-05T13:40:08.577Z,14.83
2018-06-05T13:45:11.707Z,15.40
2018-06-05T13:50:14.800Z,14.20
2018-06-05T13:55:17.841Z,16.57
2018-06-05T14:00:20.944Z,21.50
2018-06-05T14:05:24.071Z,15.93
2018-06-05T14:10:27.188Z,14.95
2018-06-05T14:15:30.269Z,14.75
2018-06-05T14:20:33.355Z,15.08
2018-06-05T14:25:36.436Z,13.68
2018-06-05T14:30:39.542Z,14.05
2018-06-05T14:35:42.652Z,14.85
2018-06-05T14:40:45.700Z,14.87
2018-06-05T14:45:48.741Z,12.98
2018-06-05T14:50:51.847Z,13.78
2018-06-05T14:55:54.980Z,14.85
2018-06-05T15:00:58.156Z,13.13
2018-06-05T15:06:01.256Z,13.62
2018-06-05T15:11:05.277Z,14.00
2018-06-05T15:16:08.331Z,12.93
2018-06-05T15:21:11.384Z,12.50
2018-06-05T15:26:14.515Z,12.95
2018-06-05T15:31:17.538Z,13.03
2018-06-05T15:36:20.653Z,12.78
2018-06-05T15:41:23.792Z,12.55
2018-06-05T15:46:26.831Z,11.97
2018-06-05T15:51:29.942Z,11.50
2018-06-05T15:56:33.125Z,10.38
2018-06-05T16:01:36.208Z,10.13
2018-06-05T16:06:39.347Z,10.03
2018-06-05T16:11:42.669Z,9.23
2018-06-05T16:16:46.168Z,9.23
2018-06-05T16:21:49.220Z,9.38
2018-06-05T16:26:52.268Z,8.68
2018-06-05T16:31:55.579Z,8.83
2018-06-05T16:36:59.409Z,8.60
2018-06-05T16:42:03.235Z,7.87
2018-06-05T16:47:06.303Z,8.15
2018-06-05T16:52:09.599Z,8.45
2018-06-05T16:57:12.865Z,8.20
2018-06-05T17:02:16.045Z,8.08
2018-06-05T17:07:19.498Z,9.10
2018-06-05T17:12:22.677Z,9.10
2018-06-05T17:17:26.626Z,9.13
2018-06-05T17:22:29.741Z,8.95
2018-06-05T17:27:33.047Z,9.23
2018-06-05T17:32:36.201Z,9.00
2018-06-05T17:37:40.371Z,8.78
2018-06-05T17:42:43.401Z,9.05
2018-06-05T17:47:46.657Z,10.88
2018-06-05T17:52:49.809Z,9.78
2018-06-05T17:57:53.165Z,9.58
2018-06-05T18:02:56.514Z,9.58
2018-06-05T18:08:00.277Z,8.68
2018-06-05T18:13:03.302Z,8.75
2018-06-05T18:18:06.428Z,9.10
2018-06-05T18:23:09.885Z,10.95
2018-06-05T18:28:13.199Z,9.10
2018-06-05T18:33:16.324Z,9.10
2018-06-05T18:38:19.557Z,9.53
2018-06-05T18:43:22.640Z,8.35
2018-06-05T18:48:25.762Z,8.58
2018-06-05T18:53:29.055Z,8.98
2018-06-05T18:58:32.199Z,8.45
2018-06-05T19:03:35.209Z,9.68
2018-06-05T19:08:38.414Z,9.60
2018-06-05T19:13:42.038Z,9.15
2018-06-05T19:18:45.243Z,8.65
2018-06-05T19:23:49.093Z,8.85
2018-06-05T19:28:52.335Z,9.05
2018-06-05T19:33:55.468Z,9.68
2018-06-05T19:38:58.785Z,10.20
2018-06-05T19:44:02.331Z,9.15
2018-06-05T19:49:05.656Z,9.30
2018-06-05T19:54:08.794Z,9.25
2018-06-05T19:59:12.023Z,9.00
2018-06-05T20:04:15.110Z,9.10
2018-06-05T20:09:18.227Z,8.83
2018-06-05T20:14:21.393Z,9.60
2018-06-05T20:19:25.078Z,9.28
2018-06-05T20:24:28.140Z,9.78
2018-06-05T20:29:31.632Z,9.00
2018-06-05T20:34:34.764Z,10.15
2018-06-05T20:39:39.005Z,8.75
2018-06-05T20:44:42.067Z,9.23
2018-06-05T20:49:45.805Z,8.78
2018-06-05T20:54:49.302Z,8.70
2018-06-05T20:59:53.834Z,9.65
2018-06-05T21:04:57.129Z,9.18
2018-06-05T21:10:01.544Z,9.70
2018-06-05T21:15:04.805Z,9.35
2018-06-05T21:20:07.872Z,9.63
2018-06-05T21:25:11.017Z,9.47
2018-06-05T21:30:14.211Z,10.13
2018-06-05T21:35:17.334Z,9.90
2018-06-05T21:40:20.542Z,9.93
2018-06-05T21:45:23.764Z,10.17
2018-06-05T21:50:26.990Z,9.85
2018-06-05T21:55:30.100Z,9.50
2018-06-05T22:00:33.609Z,9.90
2018-06-05T22:05:36.704Z,9.58
2018-06-05T22:10:39.840Z,9.53
2018-06-05T22:15:44.007Z,10.20
2018-06-05T22:20:47.079Z,9.38
2018-06-05T22:25:50.169Z,8.68
2018-06-05T22:30:53.228Z,8.45
2018-06-05T22:35:56.269Z,9.53
2018-06-05T22:40:59.337Z,7.95
2018-06-05T22:46:02.372Z,9.43
2018-06-05T22:51:05.436Z,8.80
2018-06-05T22:56:09.005Z,9.00
2018-06-05T23:01:12.143Z,8.43
2018-06-05T23:06:16.188Z,8.43
2018-06-05T23:11:19.306Z,8.83
2018-06-05T23:16:22.551Z,8.58
2018-06-05T23:21:25.586Z,8.80
2018-06-05T23:26:28.657Z,7.75
2018-06-05T23:31:31.731Z,7.42
2018-06-05T23:36:34.969Z,9.30
2018-06-05T23:41:37.998Z,10.00
2018-06-05T23:46:41.039Z,10.90
2018-06-05T23:51:44.234Z,11.20
2018-06-05T23:56:47.427Z,10.23
